sensor_id;sensor_type;location;lat;lon;timestamp;P1;durP1;ratioP1;P2;durP2;ratioP2
19448;SDS011;9863;49.404;8.246;2022-12-29T00:01:00;14.32;;;3.25;;
19448;SDS011;9863;49.404;8.246;2022-12-29T00:03:28;23.42;;;5.97;;
19448;SDS011;9863;49.404;8.246;2022-12-29T00:05:55;17.40;;;4.30;;
19448;SDS011;9863;49.404;8.246;2022-12-29T00:08:23;18.67;;;5.22;;
19448;SDS011;9863;49.404;8.246;2022-12-29T00:11:10;20.38;;;4.70;;
19448;SDS011;9863;49.404;8.246;2022-12-29T00:13:43;16.48;;;3.80;;
19448;SDS011;9863;49.404;8.246;2022-12-29T00:16:29;13.43;;;3.65;;
19448;SDS011;9863;49.404;8.246;2022-12-29T00:18:59;17.13;;;4.15;;
19448;SDS011;9863;49.404;8.246;2022-12-29T00:21:29;20.58;;;5.35;;
19448;SDS011;9863;49.404;8.246;2022-12-29T00:24:17;16.08;;;4.30;;
19448;SDS011;9863;49.404;8.246;2022-12-29T00:29:50;14.65;;;3.63;;
19448;SDS011;9863;49.404;8.246;2022-12-29T00:32:36;10.60;;;3.33;;
19448;SDS011;9863;49.404;8.246;2022-12-29T00:35:23;10.00;;;3.10;;
19448;SDS011;9863;49.404;8.246;2022-12-29T00:37:57;14.80;;;4.28;;
19448;SDS011;9863;49.404;8.246;2022-12-29T00:40:47;8.27;;;2.42;;
19448;SDS011;9863;49.404;8.246;2022-12-29T00:43:32;12.40;;;3.08;;
19448;SDS011;9863;49.404;8.246;2022-12-29T00:46:18;8.25;;;2.33;;
19448;SDS011;9863;49.404;8.246;2022-12-29T00:48:45;4.55;;;1.73;;
19448;SDS011;9863;49.404;8.246;2022-12-29T00:51:31;13.90;;;4.20;;
19448;SDS011;9863;49.404;8.246;2022-12-29T00:53:59;11.05;;;3.08;;
19448;SDS011;9863;49.404;8.246;2022-12-29T00:56:26;13.02;;;3.60;;
19448;SDS011;9863;49.404;8.246;2022-12-29T00:58:53;13.15;;;3.95;;
19448;SDS011;9863;49.404;8.246;2022-12-29T01:01:21;12.77;;;3.75;;
19448;SDS011;9863;49.404;8.246;2022-12-29T01:03:48;9.98;;;2.92;;
19448;SDS011;9863;49.404;8.246;2022-12-29T01:06:15;10.32;;;3.03;;
19448;SDS011;9863;49.404;8.246;2022-12-29T01:08:43;11.65;;;3.42;;
19448;SDS011;9863;49.404;8.246;2022-12-29T01:11:11;15.23;;;3.50;;
19448;SDS011;9863;49.404;8.246;2022-12-29T01:13:39;10.95;;;3.42;;
19448;SDS011;9863;49.404;8.246;2022-12-29T01:16:08;11.95;;;3.65;;
19448;SDS011;9863;49.404;8.246;2022-12-29T01:18:36;12.95;;;4.15;;
19448;SDS011;9863;49.404;8.246;2022-12-29T01:21:04;13.98;;;3.67;;
19448;SDS011;9863;49.404;8.246;2022-12-29T01:23:32;5.38;;;1.63;;
19448;SDS011;9863;49.404;8.246;2022-12-29T01:26:09;15.30;;;3.88;;
19448;SDS011;9863;49.404;8.246;2022-12-29T01:28:42;5.53;;;1.23;;
19448;SDS011;9863;49.404;8.246;2022-12-29T01:31:10;13.85;;;3.38;;
19448;SDS011;9863;49.404;8.246;2022-12-29T01:33:41;14.23;;;3.70;;
19448;SDS011;9863;49.404;8.246;2022-12-29T01:36:13;7.03;;;1.98;;
19448;SDS011;9863;49.404;8.246;2022-12-29T01:38:42;12.68;;;3.33;;
19448;SDS011;9863;49.404;8.246;2022-12-29T01:41:11;15.13;;;4.20;;
19448;SDS011;9863;49.404;8.246;2022-12-29T01:43:45;11.57;;;3.10;;
19448;SDS011;9863;49.404;8.246;2022-12-29T01:46:25;7.63;;;2.25;;
19448;SDS011;9863;49.404;8.246;2022-12-29T01:51:44;13.55;;;3.75;;
19448;SDS011;9863;49.404;8.246;2022-12-29T01:54:35;21.83;;;4.78;;
19448;SDS011;9863;49.404;8.246;2022-12-29T01:57:51;29.55;;;6.40;;
19448;SDS011;9863;49.404;8.246;2022-12-29T02:00:22;11.88;;;2.55;;
19448;SDS011;9863;49.404;8.246;2022-12-29T02:02:52;27.65;;;5.82;;
19448;SDS011;9863;49.404;8.246;2022-12-29T02:08:02;19.55;;;4.10;;
19448;SDS011;9863;49.404;8.246;2022-12-29T02:10:29;19.85;;;4.18;;
19448;SDS011;9863;49.404;8.246;2022-12-29T02:12:59;21.90;;;4.43;;
19448;SDS011;9863;49.404;8.246;2022-12-29T02:18:44;21.80;;;4.72;;
19448;SDS011;9863;49.404;8.246;2022-12-29T02:30:50;21.38;;;4.53;;
19448;SDS011;9863;49.404;8.246;2022-12-29T02:39:38;0.00;;;0.00;;
19448;SDS011;9863;49.404;8.246;2022-12-29T02:45:29;0.00;;;0.00;;
19448;SDS011;9863;49.404;8.246;2022-12-29T02:48:46;0.03;;;0.03;;
19448;SDS011;9863;49.404;8.246;2022-12-29T02:51:36;1.20;;;1.00;;
19448;SDS011;9863;49.404;8.246;2022-12-29T02:54:10;0.30;;;0.30;;
19448;SDS011;9863;49.404;8.246;2022-12-29T02:56:56;0.20;;;0.20;;
19448;SDS011;9863;49.404;8.246;2022-12-29T02:59:23;0.20;;;0.20;;
19448;SDS011;9863;49.404;8.246;2022-12-29T03:13:36;0.40;;;0.40;;
19448;SDS011;9863;49.404;8.246;2022-12-29T03:19:32;4.43;;;1.95;;
19448;SDS011;9863;49.404;8.246;2022-12-29T03:22:07;9.68;;;3.67;;
19448;SDS011;9863;49.404;8.246;2022-12-29T03:25:17;0.08;;;0.08;;
19448;SDS011;9863;49.404;8.246;2022-12-29T03:27:51;0.20;;;0.20;;
19448;SDS011;9863;49.404;8.246;2022-12-29T03:30:22;0.10;;;0.10;;
19448;SDS011;9863;49.404;8.246;2022-12-29T03:32:52;0.13;;;0.13;;
19448;SDS011;9863;49.404;8.246;2022-12-29T03:35:24;0.10;;;0.10;;
19448;SDS011;9863;49.404;8.246;2022-12-29T03:38:11;0.60;;;0.60;;
19448;SDS011;9863;49.404;8.246;2022-12-29T03:40:51;8.68;;;2.75;;
19448;SDS011;9863;49.404;8.246;2022-12-29T03:43:23;10.65;;;3.53;;
19448;SDS011;9863;49.404;8.246;2022-12-29T03:45:50;0.75;;;0.60;;
19448;SDS011;9863;49.404;8.246;2022-12-29T03:48:18;25.73;;;5.35;;
19448;SDS011;9863;49.404;8.246;2022-12-29T03:50:44;22.38;;;4.43;;
19448;SDS011;9863;49.404;8.246;2022-12-29T03:53:11;23.77;;;4.93;;
19448;SDS011;9863;49.404;8.246;2022-12-29T03:55:39;25.13;;;5.35;;
19448;SDS011;9863;49.404;8.246;2022-12-29T03:58:05;13.63;;;3.50;;
19448;SDS011;9863;49.404;8.246;2022-12-29T04:00:32;19.33;;;4.30;;
19448;SDS011;9863;49.404;8.246;2022-12-29T04:02:59;15.70;;;3.50;;
19448;SDS011;9863;49.404;8.246;2022-12-29T04:05:27;18.83;;;4.53;;
19448;SDS011;9863;49.404;8.246;2022-12-29T04:07:54;16.42;;;4.03;;
19448;SDS011;9863;49.404;8.246;2022-12-29T04:10:21;16.20;;;4.50;;
19448;SDS011;9863;49.404;8.246;2022-12-29T04:12:48;6.30;;;2.75;;
19448;SDS011;9863;49.404;8.246;2022-12-29T04:15:15;4.93;;;2.47;;
19448;SDS011;9863;49.404;8.246;2022-12-29T04:17:43;8.38;;;2.90;;
19448;SDS011;9863;49.404;8.246;2022-12-29T04:20:10;15.63;;;4.68;;
19448;SDS011;9863;49.404;8.246;2022-12-29T04:22:59;24.95;;;5.20;;
19448;SDS011;9863;49.404;8.246;2022-12-29T04:25:31;22.85;;;4.75;;
19448;SDS011;9863;49.404;8.246;2022-12-29T04:27:59;27.55;;;6.07;;
19448;SDS011;9863;49.404;8.246;2022-12-29T04:30:26;13.52;;;3.15;;
19448;SDS011;9863;49.404;8.246;2022-12-29T04:32:54;11.50;;;2.63;;
19448;SDS011;9863;49.404;8.246;2022-12-29T04:35:21;23.85;;;5.55;;
19448;SDS011;9863;49.404;8.246;2022-12-29T04:37:47;11.07;;;3.25;;
19448;SDS011;9863;49.404;8.246;2022-12-29T04:40:14;13.80;;;4.35;;
19448;SDS011;9863;49.404;8.246;2022-12-29T04:42:41;12.93;;;3.60;;
19448;SDS011;9863;49.404;8.246;2022-12-29T04:45:08;13.48;;;3.88;;
19448;SDS011;9863;49.404;8.246;2022-12-29T04:47:36;14.25;;;4.00;;
19448;SDS011;9863;49.404;8.246;2022-12-29T04:50:03;16.60;;;4.50;;
19448;SDS011;9863;49.404;8.246;2022-12-29T04:52:31;11.25;;;3.22;;
19448;SDS011;9863;49.404;8.246;2022-12-29T04:54:59;7.68;;;2.85;;
19448;SDS011;9863;49.404;8.246;2022-12-29T04:57:26;7.72;;;2.40;;
19448;SDS011;9863;49.404;8.246;2022-12-29T04:59:53;9.73;;;3.03;;
19448;SDS011;9863;49.404;8.246;2022-12-29T05:02:20;15.05;;;3.90;;
19448;SDS011;9863;49.404;8.246;2022-12-29T05:04:48;22.02;;;4.50;;
19448;SDS011;9863;49.404;8.246;2022-12-29T05:07:15;20.73;;;4.85;;
19448;SDS011;9863;49.404;8.246;2022-12-29T05:09:43;17.40;;;4.03;;
19448;SDS011;9863;49.404;8.246;2022-12-29T05:12:10;19.20;;;4.40;;
19448;SDS011;9863;49.404;8.246;2022-12-29T05:14:37;11.10;;;2.92;;
19448;SDS011;9863;49.404;8.246;2022-12-29T05:17:04;7.38;;;2.88;;
19448;SDS011;9863;49.404;8.246;2022-12-29T05:19:31;20.42;;;4.43;;
19448;SDS011;9863;49.404;8.246;2022-12-29T05:21:58;20.55;;;4.85;;
19448;SDS011;9863;49.404;8.246;2022-12-29T05:24:25;27.63;;;6.00;;
19448;SDS011;9863;49.404;8.246;2022-12-29T05:26:52;19.55;;;4.45;;
19448;SDS011;9863;49.404;8.246;2022-12-29T05:29:19;20.92;;;4.95;;
19448;SDS011;9863;49.404;8.246;2022-12-29T05:31:46;20.77;;;4.38;;
19448;SDS011;9863;49.404;8.246;2022-12-29T05:34:13;14.48;;;3.67;;
19448;SDS011;9863;49.404;8.246;2022-12-29T05:36:40;13.38;;;3.05;;
19448;SDS011;9863;49.404;8.246;2022-12-29T05:39:07;16.98;;;3.53;;
19448;SDS011;9863;49.404;8.246;2022-12-29T05:41:34;27.60;;;5.93;;
19448;SDS011;9863;49.404;8.246;2022-12-29T05:44:01;36.42;;;14.57;;
19448;SDS011;9863;49.404;8.246;2022-12-29T05:46:29;17.65;;;4.18;;
19448;SDS011;9863;49.404;8.246;2022-12-29T05:48:56;19.75;;;4.65;;
19448;SDS011;9863;49.404;8.246;2022-12-29T05:51:23;20.77;;;4.10;;
19448;SDS011;9863;49.404;8.246;2022-12-29T05:53:50;28.80;;;6.00;;
19448;SDS011;9863;49.404;8.246;2022-12-29T05:56:17;24.63;;;4.90;;
19448;SDS011;9863;49.404;8.246;2022-12-29T05:58:44;26.77;;;5.72;;
19448;SDS011;9863;49.404;8.246;2022-12-29T06:01:11;26.67;;;5.53;;
19448;SDS011;9863;49.404;8.246;2022-12-29T06:03:39;28.67;;;5.97;;
19448;SDS011;9863;49.404;8.246;2022-12-29T06:06:13;32.55;;;6.75;;
19448;SDS011;9863;49.404;8.246;2022-12-29T06:08:40;23.27;;;4.95;;
19448;SDS011;9863;49.404;8.246;2022-12-29T06:11:07;54.00;;;12.43;;
19448;SDS011;9863;49.404;8.246;2022-12-29T06:13:34;39.47;;;9.13;;
19448;SDS011;9863;49.404;8.246;2022-12-29T06:16:01;42.08;;;9.63;;
19448;SDS011;9863;49.404;8.246;2022-12-29T06:18:29;20.58;;;4.90;;
19448;SDS011;9863;49.404;8.246;2022-12-29T06:20:59;30.63;;;6.63;;
19448;SDS011;9863;49.404;8.246;2022-12-29T06:23:28;32.67;;;6.80;;
19448;SDS011;9863;49.404;8.246;2022-12-29T06:25:55;29.17;;;6.32;;
19448;SDS011;9863;49.404;8.246;2022-12-29T06:28:23;33.88;;;7.35;;
19448;SDS011;9863;49.404;8.246;2022-12-29T06:30:51;30.20;;;6.55;;
19448;SDS011;9863;49.404;8.246;2022-12-29T06:33:18;28.38;;;6.45;;
19448;SDS011;9863;49.404;8.246;2022-12-29T06:35:45;14.05;;;2.97;;
19448;SDS011;9863;49.404;8.246;2022-12-29T06:38:12;34.55;;;7.32;;
19448;SDS011;9863;49.404;8.246;2022-12-29T06:40:42;20.10;;;4.57;;
19448;SDS011;9863;49.404;8.246;2022-12-29T06:43:11;50.92;;;10.45;;
19448;SDS011;9863;49.404;8.246;2022-12-29T06:45:38;32.10;;;6.53;;
19448;SDS011;9863;49.404;8.246;2022-12-29T06:48:06;43.33;;;8.93;;
19448;SDS011;9863;49.404;8.246;2022-12-29T06:50:34;32.92;;;6.57;;
19448;SDS011;9863;49.404;8.246;2022-12-29T06:53:01;33.95;;;7.45;;
19448;SDS011;9863;49.404;8.246;2022-12-29T06:55:28;40.22;;;8.60;;
19448;SDS011;9863;49.404;8.246;2022-12-29T06:57:55;48.72;;;9.93;;
19448;SDS011;9863;49.404;8.246;2022-12-29T07:00:24;24.88;;;5.05;;
19448;SDS011;9863;49.404;8.246;2022-12-29T07:02:51;29.60;;;6.07;;
19448;SDS011;9863;49.404;8.246;2022-12-29T07:05:21;24.88;;;5.50;;
19448;SDS011;9863;49.404;8.246;2022-12-29T07:07:48;14.63;;;3.00;;
19448;SDS011;9863;49.404;8.246;2022-12-29T07:10:15;24.95;;;4.82;;
19448;SDS011;9863;49.404;8.246;2022-12-29T07:12:42;27.20;;;5.28;;
19448;SDS011;9863;49.404;8.246;2022-12-29T07:15:09;26.63;;;5.28;;
19448;SDS011;9863;49.404;8.246;2022-12-29T07:17:36;34.95;;;7.53;;
19448;SDS011;9863;49.404;8.246;2022-12-29T07:20:03;31.20;;;6.10;;
19448;SDS011;9863;49.404;8.246;2022-12-29T07:22:32;41.38;;;8.15;;
19448;SDS011;9863;49.404;8.246;2022-12-29T07:24:59;20.98;;;4.45;;
19448;SDS011;9863;49.404;8.246;2022-12-29T07:27:26;16.00;;;3.30;;
19448;SDS011;9863;49.404;8.246;2022-12-29T07:29:53;33.63;;;6.63;;
19448;SDS011;9863;49.404;8.246;2022-12-29T07:32:20;36.67;;;7.22;;
19448;SDS011;9863;49.404;8.246;2022-12-29T07:34:47;26.08;;;5.05;;
19448;SDS011;9863;49.404;8.246;2022-12-29T07:37:14;27.35;;;5.75;;
19448;SDS011;9863;49.404;8.246;2022-12-29T07:39:42;12.45;;;2.60;;
19448;SDS011;9863;49.404;8.246;2022-12-29T07:42:09;31.02;;;6.10;;
19448;SDS011;9863;49.404;8.246;2022-12-29T07:44:36;32.38;;;6.57;;
19448;SDS011;9863;49.404;8.246;2022-12-29T07:47:03;18.40;;;3.85;;
19448;SDS011;9863;49.404;8.246;2022-12-29T07:49:30;23.50;;;4.60;;
19448;SDS011;9863;49.404;8.246;2022-12-29T07:51:58;29.73;;;5.70;;
19448;SDS011;9863;49.404;8.246;2022-12-29T07:54:24;20.13;;;3.83;;
19448;SDS011;9863;49.404;8.246;2022-12-29T07:56:52;28.25;;;5.78;;
19448;SDS011;9863;49.404;8.246;2022-12-29T07:59:19;26.27;;;5.03;;
19448;SDS011;9863;49.404;8.246;2022-12-29T08:01:47;28.38;;;5.40;;
19448;SDS011;9863;49.404;8.246;2022-12-29T08:04:14;24.83;;;4.93;;
19448;SDS011;9863;49.404;8.246;2022-12-29T08:06:41;25.33;;;5.18;;
19448;SDS011;9863;49.404;8.246;2022-12-29T08:09:08;41.58;;;8.82;;
19448;SDS011;9863;49.404;8.246;2022-12-29T08:11:43;24.30;;;4.90;;
19448;SDS011;9863;49.404;8.246;2022-12-29T08:14:10;21.25;;;4.60;;
19448;SDS011;9863;49.404;8.246;2022-12-29T08:16:37;27.55;;;5.45;;
19448;SDS011;9863;49.404;8.246;2022-12-29T08:19:04;23.48;;;4.53;;
19448;SDS011;9863;49.404;8.246;2022-12-29T08:21:32;43.95;;;16.08;;
19448;SDS011;9863;49.404;8.246;2022-12-29T08:23:59;23.88;;;5.32;;
19448;SDS011;9863;49.404;8.246;2022-12-29T08:26:26;92.55;;;80.93;;
19448;SDS011;9863;49.404;8.246;2022-12-29T08:28:54;48.92;;;26.35;;
19448;SDS011;9863;49.404;8.246;2022-12-29T08:31:22;42.47;;;38.25;;
19448;SDS011;9863;49.404;8.246;2022-12-29T08:33:50;67.43;;;45.42;;
19448;SDS011;9863;49.404;8.246;2022-12-29T08:36:17;86.88;;;44.28;;
19448;SDS011;9863;49.404;8.246;2022-12-29T08:38:44;87.38;;;36.90;;
19448;SDS011;9863;49.404;8.246;2022-12-29T08:41:11;71.28;;;40.17;;
19448;SDS011;9863;49.404;8.246;2022-12-29T08:43:39;70.72;;;36.10;;
19448;SDS011;9863;49.404;8.246;2022-12-29T08:46:12;97.05;;;31.73;;
19448;SDS011;9863;49.404;8.246;2022-12-29T08:48:43;91.72;;;49.40;;
19448;SDS011;9863;49.404;8.246;2022-12-29T08:51:10;73.90;;;36.28;;
19448;SDS011;9863;49.404;8.246;2022-12-29T08:53:38;46.92;;;21.80;;
19448;SDS011;9863;49.404;8.246;2022-12-29T08:56:05;44.97;;;12.50;;
19448;SDS011;9863;49.404;8.246;2022-12-29T08:58:32;19.90;;;9.52;;
19448;SDS011;9863;49.404;8.246;2022-12-29T09:00:59;48.45;;;19.85;;
19448;SDS011;9863;49.404;8.246;2022-12-29T09:03:26;40.08;;;8.73;;
19448;SDS011;9863;49.404;8.246;2022-12-29T09:06:14;43.72;;;11.10;;
19448;SDS011;9863;49.404;8.246;2022-12-29T09:08:44;52.85;;;11.93;;
19448;SDS011;9863;49.404;8.246;2022-12-29T09:11:20;22.00;;;4.80;;
19448;SDS011;9863;49.404;8.246;2022-12-29T09:13:50;34.33;;;6.72;;
19448;SDS011;9863;49.404;8.246;2022-12-29T09:16:20;9.50;;;4.20;;
19448;SDS011;9863;49.404;8.246;2022-12-29T09:18:57;32.22;;;6.32;;
19448;SDS011;9863;49.404;8.246;2022-12-29T09:21:24;10.68;;;2.35;;
19448;SDS011;9863;49.404;8.246;2022-12-29T09:23:51;12.50;;;2.95;;
19448;SDS011;9863;49.404;8.246;2022-12-29T09:26:19;17.92;;;3.90;;
19448;SDS011;9863;49.404;8.246;2022-12-29T09:31:28;40.60;;;8.13;;
19448;SDS011;9863;49.404;8.246;2022-12-29T09:33:55;30.35;;;5.65;;
19448;SDS011;9863;49.404;8.246;2022-12-29T09:36:33;25.63;;;5.03;;
19448;SDS011;9863;49.404;8.246;2022-12-29T09:39:02;24.02;;;5.15;;
19448;SDS011;9863;49.404;8.246;2022-12-29T09:41:36;22.30;;;4.50;;
19448;SDS011;9863;49.404;8.246;2022-12-29T09:44:38;14.75;;;2.97;;
19448;SDS011;9863;49.404;8.246;2022-12-29T09:47:16;14.07;;;2.88;;
19448;SDS011;9863;49.404;8.246;2022-12-29T09:49:47;31.85;;;6.60;;
19448;SDS011;9863;49.404;8.246;2022-12-29T09:52:30;13.23;;;3.17;;
19448;SDS011;9863;49.404;8.246;2022-12-29T09:55:15;23.92;;;4.93;;
19448;SDS011;9863;49.404;8.246;2022-12-29T09:57:52;96.28;;;15.48;;
19448;SDS011;9863;49.404;8.246;2022-12-29T10:03:32;32.85;;;6.72;;
19448;SDS011;9863;49.404;8.246;2022-12-29T10:06:15;25.60;;;5.28;;
19448;SDS011;9863;49.404;8.246;2022-12-29T10:11:43;22.58;;;5.07;;
19448;SDS011;9863;49.404;8.246;2022-12-29T10:17:42;17.77;;;3.80;;
19448;SDS011;9863;49.404;8.246;2022-12-29T10:24:02;22.42;;;4.65;;
19448;SDS011;9863;49.404;8.246;2022-12-29T10:26:43;12.20;;;2.83;;
19448;SDS011;9863;49.404;8.246;2022-12-29T10:32:01;19.05;;;3.85;;
19448;SDS011;9863;49.404;8.246;2022-12-29T10:34:36;10.40;;;2.17;;
19448;SDS011;9863;49.404;8.246;2022-12-29T10:39:57;20.13;;;4.40;;
19448;SDS011;9863;49.404;8.246;2022-12-29T10:42:45;12.90;;;2.67;;
19448;SDS011;9863;49.404;8.246;2022-12-29T10:45:18;18.92;;;4.13;;
19448;SDS011;9863;49.404;8.246;2022-12-29T10:47:56;23.45;;;5.32;;
19448;SDS011;9863;49.404;8.246;2022-12-29T10:50:30;20.77;;;5.13;;
19448;SDS011;9863;49.404;8.246;2022-12-29T10:53:00;15.57;;;4.50;;
19448;SDS011;9863;49.404;8.246;2022-12-29T10:55:35;31.65;;;6.72;;
19448;SDS011;9863;49.404;8.246;2022-12-29T10:58:05;28.70;;;14.40;;
19448;SDS011;9863;49.404;8.246;2022-12-29T11:00:37;30.75;;;8.45;;
19448;SDS011;9863;49.404;8.246;2022-12-29T11:03:30;15.65;;;4.00;;
19448;SDS011;9863;49.404;8.246;2022-12-29T11:06:26;22.13;;;5.07;;
19448;SDS011;9863;49.404;8.246;2022-12-29T11:09:14;20.15;;;5.40;;
19448;SDS011;9863;49.404;8.246;2022-12-29T11:12:20;27.67;;;8.18;;
19448;SDS011;9863;49.404;8.246;2022-12-29T11:15:11;17.45;;;4.85;;
19448;SDS011;9863;49.404;8.246;2022-12-29T11:23:20;31.35;;;11.02;;
19448;SDS011;9863;49.404;8.246;2022-12-29T11:26:13;77.80;;;21.13;;
19448;SDS011;9863;49.404;8.246;2022-12-29T11:28:45;37.40;;;12.18;;
19448;SDS011;9863;49.404;8.246;2022-12-29T11:31:30;51.00;;;18.67;;
19448;SDS011;9863;49.404;8.246;2022-12-29T11:33:57;38.58;;;16.52;;
19448;SDS011;9863;49.404;8.246;2022-12-29T11:36:24;31.52;;;26.02;;
19448;SDS011;9863;49.404;8.246;2022-12-29T11:38:52;45.55;;;18.85;;
19448;SDS011;9863;49.404;8.246;2022-12-29T11:41:22;32.80;;;10.25;;
19448;SDS011;9863;49.404;8.246;2022-12-29T11:43:57;38.88;;;8.85;;
19448;SDS011;9863;49.404;8.246;2022-12-29T11:46:29;21.50;;;5.13;;
19448;SDS011;9863;49.404;8.246;2022-12-29T11:49:01;29.70;;;6.65;;
19448;SDS011;9863;49.404;8.246;2022-12-29T11:51:39;61.03;;;26.45;;
19448;SDS011;9863;49.404;8.246;2022-12-29T11:54:19;38.05;;;9.20;;
19448;SDS011;9863;49.404;8.246;2022-12-29T11:56:52;48.40;;;28.50;;
19448;SDS011;9863;49.404;8.246;2022-12-29T12:00:05;26.70;;;6.88;;
19448;SDS011;9863;49.404;8.246;2022-12-29T12:05:43;50.05;;;43.35;;
19448;SDS011;9863;49.404;8.246;2022-12-29T12:11:20;59.65;;;53.05;;
19448;SDS011;9863;49.404;8.246;2022-12-29T12:14:00;49.10;;;44.00;;
19448;SDS011;9863;49.404;8.246;2022-12-29T12:17:02;61.47;;;50.33;;
19448;SDS011;9863;49.404;8.246;2022-12-29T12:19:42;49.20;;;33.67;;
19448;SDS011;9863;49.404;8.246;2022-12-29T12:22:41;71.22;;;61.95;;
19448;SDS011;9863;49.404;8.246;2022-12-29T12:28:12;80.60;;;74.80;;
19448;SDS011;9863;49.404;8.246;2022-12-29T12:31:13;65.82;;;60.33;;
19448;SDS011;9863;49.404;8.246;2022-12-29T12:34:20;53.70;;;48.30;;
19448;SDS011;9863;49.404;8.246;2022-12-29T12:37:55;63.30;;;57.75;;
19448;SDS011;9863;49.404;8.246;2022-12-29T12:45:49;49.55;;;43.63;;
19448;SDS011;9863;49.404;8.246;2022-12-29T12:51:35;40.65;;;20.17;;
19448;SDS011;9863;49.404;8.246;2022-12-29T12:54:37;49.97;;;17.73;;
19448;SDS011;9863;49.404;8.246;2022-12-29T13:09:20;35.15;;;7.60;;
19448;SDS011;9863;49.404;8.246;2022-12-29T13:27:28;61.55;;;14.48;;
19448;SDS011;9863;49.404;8.246;2022-12-29T13:30:50;27.27;;;7.20;;
19448;SDS011;9863;49.404;8.246;2022-12-29T13:36:33;31.40;;;7.13;;
19448;SDS011;9863;49.404;8.246;2022-12-29T13:39:22;28.23;;;6.85;;
19448;SDS011;9863;49.404;8.246;2022-12-29T13:41:57;35.17;;;8.95;;
19448;SDS011;9863;49.404;8.246;2022-12-29T13:44:27;43.97;;;10.80;;
19448;SDS011;9863;49.404;8.246;2022-12-29T13:47:46;39.45;;;10.57;;
19448;SDS011;9863;49.404;8.246;2022-12-29T13:50:38;47.03;;;11.48;;
19448;SDS011;9863;49.404;8.246;2022-12-29T13:55:51;33.05;;;8.05;;
19448;SDS011;9863;49.404;8.246;2022-12-29T14:01:43;38.00;;;8.85;;
19448;SDS011;9863;49.404;8.246;2022-12-29T14:04:30;36.47;;;8.43;;
19448;SDS011;9863;49.404;8.246;2022-12-29T14:07:04;37.63;;;9.52;;
19448;SDS011;9863;49.404;8.246;2022-12-29T14:12:40;48.85;;;9.63;;
19448;SDS011;9863;49.404;8.246;2022-12-29T14:17:40;48.97;;;13.05;;
19448;SDS011;9863;49.404;8.246;2022-12-29T14:20:46;50.65;;;11.45;;
19448;SDS011;9863;49.404;8.246;2022-12-29T14:30:01;29.15;;;12.02;;
19448;SDS011;9863;49.404;8.246;2022-12-29T14:31:57;34.28;;;10.15;;
19448;SDS011;9863;49.404;8.246;2022-12-29T14:34:29;11.38;;;2.58;;
19448;SDS011;9863;49.404;8.246;2022-12-29T14:39:38;57.35;;;11.57;;
19448;SDS011;9863;49.404;8.246;2022-12-29T14:44:47;35.40;;;7.43;;
19448;SDS011;9863;49.404;8.246;2022-12-29T14:47:36;30.48;;;6.43;;
19448;SDS011;9863;49.404;8.246;2022-12-29T14:52:49;17.55;;;4.25;;
19448;SDS011;9863;49.404;8.246;2022-12-29T14:58:31;24.23;;;5.18;;
19448;SDS011;9863;49.404;8.246;2022-12-29T15:04:52;19.23;;;4.50;;
19448;SDS011;9863;49.404;8.246;2022-12-29T15:07:02;21.58;;;5.35;;
19448;SDS011;9863;49.404;8.246;2022-12-29T15:09:36;20.38;;;4.97;;
19448;SDS011;9863;49.404;8.246;2022-12-29T15:12:19;30.02;;;6.95;;
19448;SDS011;9863;49.404;8.246;2022-12-29T15:15:23;20.02;;;6.75;;
19448;SDS011;9863;49.404;8.246;2022-12-29T15:17:52;24.23;;;6.95;;
19448;SDS011;9863;49.404;8.246;2022-12-29T15:22:57;13.00;;;3.85;;
19448;SDS011;9863;49.404;8.246;2022-12-29T15:25:29;14.00;;;3.97;;
19448;SDS011;9863;49.404;8.246;2022-12-29T15:28:01;39.53;;;9.02;;
19448;SDS011;9863;49.404;8.246;2022-12-29T15:30:31;14.77;;;3.45;;
19448;SDS011;9863;49.404;8.246;2022-12-29T15:32:58;25.02;;;5.90;;
19448;SDS011;9863;49.404;8.246;2022-12-29T15:38:14;18.92;;;4.97;;
19448;SDS011;9863;49.404;8.246;2022-12-29T15:41:02;17.20;;;4.38;;
19448;SDS011;9863;49.404;8.246;2022-12-29T15:46:27;12.85;;;3.22;;
19448;SDS011;9863;49.404;8.246;2022-12-29T15:48:57;16.23;;;4.35;;
19448;SDS011;9863;49.404;8.246;2022-12-29T15:53:57;35.75;;;7.38;;
19448;SDS011;9863;49.404;8.246;2022-12-29T15:56:27;19.77;;;4.20;;
19448;SDS011;9863;49.404;8.246;2022-12-29T15:58:56;19.98;;;4.28;;
19448;SDS011;9863;49.404;8.246;2022-12-29T16:01:24;17.70;;;4.00;;
19448;SDS011;9863;49.404;8.246;2022-12-29T16:03:58;25.35;;;5.25;;
19448;SDS011;9863;49.404;8.246;2022-12-29T16:09:48;53.58;;;11.00;;
19448;SDS011;9863;49.404;8.246;2022-12-29T16:12:04;23.10;;;5.15;;
19448;SDS011;9863;49.404;8.246;2022-12-29T16:15:03;14.07;;;3.05;;
19448;SDS011;9863;49.404;8.246;2022-12-29T16:17:46;26.60;;;6.03;;
19448;SDS011;9863;49.404;8.246;2022-12-29T16:20:30;20.98;;;5.35;;
19448;SDS011;9863;49.404;8.246;2022-12-29T16:23:09;17.80;;;4.03;;
19448;SDS011;9863;49.404;8.246;2022-12-29T16:25:47;13.88;;;3.15;;
19448;SDS011;9863;49.404;8.246;2022-12-29T16:28:25;18.15;;;4.22;;
19448;SDS011;9863;49.404;8.246;2022-12-29T16:31:03;28.33;;;6.50;;
19448;SDS011;9863;49.404;8.246;2022-12-29T16:33:45;23.17;;;5.53;;
19448;SDS011;9863;49.404;8.246;2022-12-29T16:36:39;17.67;;;3.80;;
19448;SDS011;9863;49.404;8.246;2022-12-29T16:42:01;26.38;;;5.93;;
19448;SDS011;9863;49.404;8.246;2022-12-29T16:50:33;28.38;;;6.20;;
19448;SDS011;9863;49.404;8.246;2022-12-29T16:53:03;29.63;;;6.22;;
19448;SDS011;9863;49.404;8.246;2022-12-29T16:55:32;32.90;;;7.20;;
19448;SDS011;9863;49.404;8.246;2022-12-29T16:57:59;35.67;;;7.28;;
19448;SDS011;9863;49.404;8.246;2022-12-29T17:00:27;34.92;;;7.13;;
19448;SDS011;9863;49.404;8.246;2022-12-29T17:03:01;12.27;;;2.67;;
19448;SDS011;9863;49.404;8.246;2022-12-29T17:05:29;20.75;;;4.50;;
19448;SDS011;9863;49.404;8.246;2022-12-29T17:07:56;35.33;;;7.20;;
19448;SDS011;9863;49.404;8.246;2022-12-29T17:10:27;20.73;;;4.38;;
19448;SDS011;9863;49.404;8.246;2022-12-29T17:13:13;18.30;;;4.28;;
19448;SDS011;9863;49.404;8.246;2022-12-29T17:15:40;30.80;;;6.80;;
19448;SDS011;9863;49.404;8.246;2022-12-29T17:18:07;21.35;;;5.03;;
19448;SDS011;9863;49.404;8.246;2022-12-29T17:20:39;27.02;;;5.72;;
19448;SDS011;9863;49.404;8.246;2022-12-29T17:23:13;28.73;;;6.25;;
19448;SDS011;9863;49.404;8.246;2022-12-29T17:25:51;19.58;;;4.07;;
19448;SDS011;9863;49.404;8.246;2022-12-29T17:28:21;17.00;;;3.60;;
19448;SDS011;9863;49.404;8.246;2022-12-29T17:30:54;15.40;;;3.17;;
19448;SDS011;9863;49.404;8.246;2022-12-29T17:33:27;17.30;;;3.60;;
19448;SDS011;9863;49.404;8.246;2022-12-29T17:36:04;18.73;;;4.30;;
19448;SDS011;9863;49.404;8.246;2022-12-29T17:38:34;19.67;;;4.18;;
19448;SDS011;9863;49.404;8.246;2022-12-29T17:41:02;19.42;;;4.38;;
19448;SDS011;9863;49.404;8.246;2022-12-29T17:43:30;22.10;;;4.68;;
19448;SDS011;9863;49.404;8.246;2022-12-29T17:46:02;21.15;;;4.53;;
19448;SDS011;9863;49.404;8.246;2022-12-29T17:48:33;25.73;;;5.55;;
19448;SDS011;9863;49.404;8.246;2022-12-29T17:51:00;17.50;;;3.80;;
19448;SDS011;9863;49.404;8.246;2022-12-29T17:53:28;19.25;;;4.10;;
19448;SDS011;9863;49.404;8.246;2022-12-29T17:55:56;19.48;;;4.22;;
19448;SDS011;9863;49.404;8.246;2022-12-29T17:58:24;19.88;;;4.70;;
19448;SDS011;9863;49.404;8.246;2022-12-29T18:00:55;16.17;;;3.38;;
19448;SDS011;9863;49.404;8.246;2022-12-29T18:03:29;43.30;;;8.77;;
19448;SDS011;9863;49.404;8.246;2022-12-29T18:06:00;31.23;;;6.47;;
19448;SDS011;9863;49.404;8.246;2022-12-29T18:08:30;34.85;;;7.20;;
19448;SDS011;9863;49.404;8.246;2022-12-29T18:11:00;13.38;;;2.92;;
19448;SDS011;9863;49.404;8.246;2022-12-29T18:13:28;29.38;;;6.00;;
19448;SDS011;9863;49.404;8.246;2022-12-29T18:16:11;41.65;;;8.88;;
19448;SDS011;9863;49.404;8.246;2022-12-29T18:18:39;33.25;;;7.25;;
19448;SDS011;9863;49.404;8.246;2022-12-29T18:21:08;24.20;;;5.35;;